createdAt,value
2018-07-12T00:00:51.059Z,9.05
2018-07-12T00:03:19.035Z,8.55
2018-07-12T00:05:46.880Z,10.65
2018-07-12T00:08:14.741Z,9.48
2018-07-12T00:10:42.566Z,8.93
2018-07-12T00:13:10.446Z,10.03
2018-07-12T00:15:38.370Z,11.85
2018-07-12T00:18:06.338Z,13.50
2018-07-12T00:20:34.206Z,12.80
2018-07-12T00:23:02.042Z,12.95
2018-07-12T00:25:29.881Z,10.00
2018-07-12T00:27:57.733Z,9.55
2018-07-12T00:30:25.584Z,10.32
2018-07-12T00:32:53.422Z,10.75
2018-07-12T00:35:21.268Z,9.68
2018-07-12T00:37:49.127Z,10.80
2018-07-12T00:40:17.255Z,12.20
2018-07-12T00:42:45.108Z,10.00
2018-07-12T00:45:13.308Z,13.10
2018-07-12T00:47:41.572Z,10.10
2018-07-12T00:50:09.432Z,10.08
2018-07-12T00:52:37.278Z,10.75
2018-07-12T00:55:05.130Z,10.23
2018-07-12T00:57:32.956Z,13.15
2018-07-12T01:00:00.834Z,13.80
2018-07-12T01:02:28.743Z,11.80
2018-07-12T01:04:56.572Z,11.65
2018-07-12T01:07:24.404Z,11.65
2018-07-12T01:09:52.229Z,11.53
2018-07-12T01:12:20.041Z,11.20
2018-07-12T01:14:47.873Z,10.85
2018-07-12T01:17:15.713Z,10.82
2018-07-12T01:19:43.579Z,12.50
2018-07-12T01:22:11.437Z,10.65
2018-07-12T01:24:39.301Z,11.10
2018-07-12T01:27:07.155Z,12.93
2018-07-12T01:29:35.019Z,11.68
2018-07-12T01:32:02.876Z,10.30
2018-07-12T01:34:30.701Z,12.65
2018-07-12T01:36:58.581Z,9.95
2018-07-12T01:39:26.874Z,10.93
2018-07-12T01:41:54.734Z,10.43
2018-07-12T01:44:22.578Z,11.33
2018-07-12T01:46:50.445Z,11.12
2018-07-12T01:49:18.304Z,10.30
2018-07-12T01:51:46.153Z,11.12
2018-07-12T01:54:14.070Z,11.70
2018-07-12T01:56:41.920Z,12.03
2018-07-12T01:59:09.768Z,13.53
2018-07-12T02:01:37.643Z,12.20
2018-07-12T02:04:05.487Z,10.63
2018-07-12T02:06:33.350Z,14.55
2018-07-12T02:09:01.198Z,11.53
2018-07-12T02:11:29.040Z,13.53
2018-07-12T02:13:56.900Z,13.75
2018-07-12T02:16:24.740Z,14.23
2018-07-12T02:18:52.730Z,14.28
2018-07-12T02:21:20.581Z,12.37
2018-07-12T02:23:48.433Z,11.57
2018-07-12T02:26:16.657Z,13.72
2018-07-12T02:28:44.493Z,13.32
2018-07-12T02:31:12.375Z,13.58
2018-07-12T02:33:40.460Z,14.05
2018-07-12T02:36:08.317Z,16.23
2018-07-12T02:38:36.181Z,14.78
2018-07-12T02:41:04.039Z,16.17
2018-07-12T02:43:31.967Z,14.28
2018-07-12T02:45:59.838Z,14.95
2018-07-12T02:48:27.717Z,13.83
2018-07-12T02:50:55.578Z,14.90
2018-07-12T02:53:23.458Z,14.65
2018-07-12T02:55:51.374Z,16.05
2018-07-12T02:58:19.229Z,16.67
2018-07-12T03:00:47.100Z,15.53
2018-07-12T03:03:14.936Z,16.42
2018-07-12T03:05:42.974Z,14.65
2018-07-12T03:08:10.814Z,13.93
2018-07-12T03:10:38.692Z,14.87
2018-07-12T03:13:06.590Z,16.42
2018-07-12T03:15:34.436Z,16.05
2018-07-12T03:18:02.309Z,15.45
2018-07-12T03:20:30.200Z,15.08
2018-07-12T03:22:58.191Z,15.75
2018-07-12T03:25:26.118Z,15.80
2018-07-12T03:27:54.033Z,17.45
2018-07-12T03:30:21.881Z,14.23
2018-07-12T03:32:49.735Z,16.57
2018-07-12T03:35:17.841Z,17.50
2018-07-12T03:37:45.691Z,16.45
2018-07-12T03:40:13.619Z,16.07
2018-07-12T03:42:41.457Z,17.98
2018-07-12T03:45:09.387Z,16.40
2018-07-12T03:47:37.257Z,14.87
2018-07-12T03:50:05.595Z,15.88
2018-07-12T03:52:33.445Z,15.30
2018-07-12T03:55:01.553Z,14.25
2018-07-12T03:57:29.417Z,18.40
2018-07-12T03:59:57.294Z,15.13
2018-07-12T04:02:25.163Z,14.73
2018-07-12T04:04:53.103Z,15.30
2018-07-12T04:07:20.970Z,17.05
2018-07-12T04:09:48.821Z,15.18
2018-07-12T04:12:16.675Z,16.42
2018-07-12T04:14:44.529Z,20.12
2018-07-12T04:17:16.623Z,15.83
2018-07-12T04:19:44.473Z,16.10
2018-07-12T04:22:12.401Z,13.93
2018-07-12T04:24:40.266Z,17.40
2018-07-12T04:27:08.154Z,15.72
2018-07-12T04:29:35.998Z,14.87
2018-07-12T04:32:03.873Z,13.88
2018-07-12T04:34:31.830Z,15.40
2018-07-12T04:36:59.868Z,15.55
2018-07-12T04:39:27.734Z,14.43
2018-07-12T04:41:55.731Z,12.68
2018-07-12T04:44:24.108Z,13.88
2018-07-12T04:46:51.990Z,14.63
2018-07-12T04:49:20.448Z,13.10
2018-07-12T04:51:48.426Z,13.60
2018-07-12T04:54:16.290Z,15.13
2018-07-12T04:56:44.160Z,14.40
2018-07-12T04:59:12.027Z,15.23
2018-07-12T05:01:39.914Z,14.15
2018-07-12T05:04:07.818Z,15.58
2018-07-12T05:06:35.748Z,15.55
2018-07-12T05:09:04.820Z,14.68
2018-07-12T05:11:32.910Z,15.85
2018-07-12T05:14:00.856Z,15.50
2018-07-12T05:16:28.770Z,16.82
2018-07-12T05:18:56.650Z,14.30
2018-07-12T05:21:24.641Z,15.90
2018-07-12T05:23:52.530Z,18.00
2018-07-12T05:26:20.376Z,16.02
2018-07-12T05:28:48.286Z,15.72
2018-07-12T05:31:16.236Z,17.57
2018-07-12T05:33:44.102Z,17.73
2018-07-12T05:36:56.315Z,21.20
2018-07-12T05:39:25.333Z,17.02
2018-07-12T05:41:54.368Z,16.17
2018-07-12T05:44:23.296Z,15.68
2018-07-12T05:46:52.527Z,16.30
2018-07-12T05:49:21.563Z,16.23
2018-07-12T05:51:50.517Z,20.27
2018-07-12T05:54:20.266Z,18.07
2018-07-12T05:56:49.585Z,20.43
2018-07-12T05:59:18.779Z,22.50
2018-07-12T06:01:59.479Z,18.90
2018-07-12T06:04:28.433Z,20.10
2018-07-12T06:06:57.557Z,18.60
2018-07-12T06:09:26.503Z,18.48
2018-07-12T06:11:55.509Z,21.20
2018-07-12T06:14:24.829Z,19.92
2018-07-12T06:16:53.814Z,21.77
2018-07-12T06:19:22.744Z,21.62
2018-07-12T06:21:51.704Z,25.12
2018-07-12T06:24:20.626Z,23.57
2018-07-12T06:26:50.375Z,25.30
2018-07-12T06:29:19.293Z,21.97
2018-07-12T06:31:48.644Z,26.30
2018-07-12T06:34:17.647Z,25.08
2018-07-12T06:36:46.677Z,23.10
2018-07-12T06:39:15.683Z,24.12
2018-07-12T06:41:44.627Z,26.50
2018-07-12T06:44:14.318Z,27.30
2018-07-12T06:46:43.343Z,27.30
2018-07-12T06:49:12.246Z,27.40
2018-07-12T06:51:41.532Z,28.27
2018-07-12T06:54:10.466Z,30.37
2018-07-12T06:56:39.414Z,29.07
2018-07-12T06:59:08.348Z,30.92
2018-07-12T07:01:37.340Z,29.32
2018-07-12T07:04:06.428Z,29.65
2018-07-12T07:06:35.374Z,36.85
2018-07-12T07:09:06.626Z,36.65
2018-07-12T07:11:36.229Z,42.75
2018-07-12T07:14:05.186Z,36.83
2018-07-12T07:16:34.152Z,40.85
2018-07-12T07:19:04.348Z,41.68
2018-07-12T07:21:33.374Z,46.70
2018-07-12T07:24:02.312Z,47.67
2018-07-12T07:26:31.227Z,48.30
2018-07-12T07:29:00.175Z,46.85
2018-07-12T07:31:29.211Z,51.73
2018-07-12T07:33:58.258Z,52.80
2018-07-12T07:36:27.209Z,50.17
2018-07-12T07:38:56.293Z,50.63
2018-07-12T07:41:25.629Z,53.15
2018-07-12T07:43:54.300Z,56.30
2018-07-12T07:46:23.599Z,51.08
2018-07-12T07:48:52.571Z,53.50
2018-07-12T07:51:21.477Z,52.75
2018-07-12T07:53:50.428Z,50.20
2018-07-12T07:56:19.370Z,46.28
2018-07-12T07:58:48.382Z,53.23
2018-07-12T08:01:17.330Z,46.50
2018-07-12T08:03:46.260Z,43.42
2018-07-12T08:06:15.181Z,40.23
2018-07-12T08:08:44.144Z,40.28
2018-07-12T08:11:13.151Z,44.70
2018-07-12T08:13:42.345Z,38.02
2018-07-12T08:16:11.566Z,36.20
2018-07-12T08:18:40.702Z,32.63
2018-07-12T08:21:12.800Z,35.75
2018-07-12T08:23:42.114Z,36.00
2018-07-12T08:26:11.088Z,31.27
2018-07-12T08:28:40.200Z,31.90
2018-07-12T08:31:09.289Z,35.52
2018-07-12T08:33:38.433Z,31.87
2018-07-12T08:36:07.471Z,34.25
2018-07-12T08:38:36.525Z,30.00
2018-07-12T08:41:05.495Z,30.48
2018-07-12T08:43:34.459Z,29.55
2018-07-12T08:46:03.405Z,30.25
2018-07-12T08:48:32.078Z,29.67
2018-07-12T08:51:01.180Z,30.43
2018-07-12T08:53:30.506Z,30.70
2018-07-12T08:55:59.484Z,31.45
2018-07-12T08:58:28.482Z,34.85
2018-07-12T09:00:57.389Z,36.03
2018-07-12T09:03:26.340Z,36.23
2018-07-12T09:05:55.263Z,33.18
2018-07-12T09:08:24.276Z,34.98
2018-07-12T09:10:53.246Z,30.90
2018-07-12T09:13:22.222Z,31.27
2018-07-12T09:15:51.389Z,29.60
2018-07-12T09:18:20.660Z,29.12
2018-07-12T09:20:49.607Z,29.63
2018-07-12T09:23:18.550Z,34.18
2018-07-12T09:25:47.489Z,27.82
2018-07-12T09:28:16.395Z,26.35
2018-07-12T09:30:45.429Z,28.42
2018-07-12T09:33:14.524Z,26.93
2018-07-12T09:35:43.506Z,28.35
2018-07-12T09:38:23.568Z,28.50
2018-07-12T09:40:51.953Z,29.00
2018-07-12T09:43:20.685Z,28.80
2018-07-12T09:45:49.627Z,29.05
2018-07-12T09:48:18.583Z,27.62
2018-07-12T09:50:47.623Z,31.40
2018-07-12T09:53:16.793Z,30.70
2018-07-12T09:55:45.931Z,30.68
2018-07-12T09:58:26.355Z,27.13
2018-07-12T10:01:00.595Z,27.27
2018-07-12T10:03:35.066Z,28.55
2018-07-12T10:06:09.418Z,25.68
2018-07-12T10:08:44.179Z,27.25
2018-07-12T10:11:18.753Z,27.05
2018-07-12T10:13:53.543Z,25.57
2018-07-12T10:16:28.060Z,25.05
2018-07-12T10:18:57.271Z,24.27
2018-07-12T10:21:26.456Z,24.70
2018-07-12T10:23:55.676Z,28.77
2018-07-12T10:26:24.945Z,27.75
2018-07-12T10:28:54.305Z,28.45
2018-07-12T10:31:23.299Z,26.10
2018-07-12T10:33:52.407Z,26.45
2018-07-12T10:36:21.662Z,24.82
2018-07-12T10:38:50.788Z,24.32
2018-07-12T10:41:20.282Z,25.40
2018-07-12T10:43:49.544Z,24.50
2018-07-12T10:46:18.850Z,20.97
2018-07-12T10:48:48.235Z,22.50
2018-07-12T10:51:17.754Z,22.75
2018-07-12T10:53:46.795Z,25.35
2018-07-12T10:56:15.925Z,22.37
2018-07-12T10:58:44.928Z,20.70
2018-07-12T11:01:14.104Z,21.50
2018-07-12T11:03:43.240Z,22.45
2018-07-12T11:06:18.903Z,18.35
2018-07-12T11:08:48.322Z,25.77
2018-07-12T11:11:17.422Z,22.25
2018-07-12T11:13:49.694Z,29.50
2018-07-12T11:16:19.649Z,25.80
2018-07-12T11:18:49.033Z,22.32
2018-07-12T11:21:18.365Z,22.65
2018-07-12T11:23:48.024Z,21.42
2018-07-12T11:26:17.332Z,25.10
2018-07-12T11:28:46.586Z,22.05
2018-07-12T11:31:15.570Z,20.43
2018-07-12T11:33:46.146Z,21.95
2018-07-12T11:36:15.553Z,21.07
2018-07-12T11:38:45.254Z,21.73
2018-07-12T11:41:14.919Z,19.90
2018-07-12T11:43:44.296Z,22.05
2018-07-12T11:46:14.589Z,20.70
2018-07-12T11:48:44.191Z,19.48
2018-07-12T11:51:13.191Z,17.45
2018-07-12T11:53:42.501Z,20.92
2018-07-12T11:56:11.787Z,19.32
2018-07-12T11:58:40.781Z,18.42
2018-07-12T12:01:16.463Z,14.93
2018-07-12T12:03:45.600Z,17.57
2018-07-12T12:06:14.571Z,20.68
2018-07-12T12:08:43.644Z,16.85
2018-07-12T12:11:12.605Z,18.45
2018-07-12T12:13:41.972Z,19.20
2018-07-12T12:16:11.174Z,16.30
2018-07-12T12:18:40.163Z,13.62
2018-07-12T12:21:09.157Z,11.75
2018-07-12T12:23:38.099Z,12.88
2018-07-12T12:26:07.182Z,15.40
2018-07-12T12:28:36.121Z,12.13
2018-07-12T12:31:05.413Z,11.60
2018-07-12T12:33:34.765Z,7.10
2018-07-12T12:36:03.898Z,6.87
2018-07-12T12:38:32.968Z,7.03
2018-07-12T12:41:02.022Z,9.93
2018-07-12T12:43:30.962Z,7.37
2018-07-12T12:45:59.896Z,6.87
2018-07-12T12:48:28.847Z,6.75
2018-07-12T12:50:57.835Z,7.60
2018-07-12T12:53:27.028Z,8.55
2018-07-12T12:55:55.968Z,7.12
2018-07-12T12:58:24.902Z,6.50
2018-07-12T13:00:53.563Z,7.83
2018-07-12T13:03:22.498Z,7.60
2018-07-12T13:05:51.498Z,7.87
2018-07-12T13:08:20.174Z,8.40
2018-07-12T13:10:49.148Z,8.03
2018-07-12T13:13:18.112Z,9.05
2018-07-12T13:15:47.020Z,7.50
2018-07-12T13:18:15.885Z,7.13
2018-07-12T13:20:45.158Z,7.10
2018-07-12T13:23:13.978Z,7.10
2018-07-12T13:25:42.855Z,8.00
2018-07-12T13:28:11.655Z,8.83
2018-07-12T13:30:40.559Z,9.37
2018-07-12T13:33:09.199Z,7.07
2018-07-12T13:35:37.959Z,8.73
2018-07-12T13:38:06.900Z,10.55
2018-07-12T13:40:35.651Z,7.07
2018-07-12T13:43:04.520Z,6.50
2018-07-12T13:45:33.333Z,5.97
2018-07-12T13:48:02.339Z,5.20
2018-07-12T13:50:31.333Z,5.83
2018-07-12T13:53:00.079Z,4.83
2018-07-12T13:55:28.773Z,5.17
2018-07-12T13:57:57.420Z,4.83
2018-07-12T14:00:26.353Z,5.57
2018-07-12T14:02:55.117Z,6.77
2018-07-12T14:05:23.764Z,7.13
2018-07-12T14:07:52.415Z,6.57
2018-07-12T14:10:21.039Z,4.63
2018-07-12T14:12:49.743Z,5.33
2018-07-12T14:15:18.429Z,4.27
2018-07-12T14:17:47.033Z,4.10
2018-07-12T14:20:15.692Z,5.57
2018-07-12T14:22:44.313Z,6.97
2018-07-12T14:25:13.011Z,5.77
2018-07-12T14:27:41.863Z,4.40
2018-07-12T14:30:10.871Z,5.73
2018-07-12T14:32:39.501Z,4.63
2018-07-12T14:35:08.233Z,4.30
2018-07-12T14:37:36.849Z,5.90
2018-07-12T14:40:05.453Z,4.10
2018-07-12T14:42:34.101Z,5.87
2018-07-12T14:45:03.096Z,4.27
2018-07-12T14:47:31.993Z,6.57
2018-07-12T14:50:00.610Z,5.37
2018-07-12T14:52:29.227Z,4.27
2018-07-12T14:54:57.943Z,5.63
2018-07-12T14:57:26.339Z,5.13
2018-07-12T14:59:54.974Z,4.23
2018-07-12T15:02:23.664Z,7.40
2018-07-12T15:04:52.741Z,6.43
2018-07-12T15:07:21.680Z,5.10
2018-07-12T15:09:50.376Z,4.77
2018-07-12T15:12:18.992Z,5.33
2018-07-12T15:14:47.762Z,5.27
2018-07-12T15:17:16.516Z,6.67
2018-07-12T15:19:45.287Z,5.67
2018-07-12T15:22:13.890Z,8.10
2018-07-12T15:24:42.538Z,7.23
2018-07-12T15:27:11.200Z,5.83
2018-07-12T15:29:40.118Z,3.80
2018-07-12T15:32:08.883Z,4.90
2018-07-12T15:34:37.564Z,3.37
2018-07-12T15:37:06.340Z,3.97
2018-07-12T15:39:35.180Z,3.47
2018-07-12T15:42:03.785Z,3.20
2018-07-12T15:44:32.423Z,3.73
2018-07-12T15:47:01.074Z,5.20
2018-07-12T15:49:29.749Z,7.03
2018-07-12T15:51:58.380Z,5.80
2018-07-12T15:54:27.143Z,3.43
2018-07-12T15:56:55.808Z,5.50
2018-07-12T15:59:24.413Z,3.60
2018-07-12T16:01:53.085Z,4.23
2018-07-12T16:04:21.695Z,4.03
2018-07-12T16:06:50.435Z,4.50
2018-07-12T16:09:19.104Z,5.53
2018-07-12T16:11:47.718Z,4.63
2018-07-12T16:14:16.373Z,4.97
2018-07-12T16:16:44.981Z,5.43
2018-07-12T16:19:13.605Z,4.70
2018-07-12T16:21:42.243Z,4.67
2018-07-12T16:24:10.848Z,6.20
2018-07-12T16:26:39.503Z,5.03
2018-07-12T16:29:08.201Z,4.83
2018-07-12T16:31:36.817Z,4.40
2018-07-12T16:34:05.832Z,4.90
2018-07-12T16:36:34.721Z,4.43
2018-07-12T16:39:05.023Z,4.40
2018-07-12T16:41:34.092Z,4.17
2018-07-12T16:44:05.044Z,4.40
2018-07-12T16:46:33.677Z,6.53
2018-07-12T16:49:02.473Z,4.13
2018-07-12T16:51:31.108Z,5.03
2018-07-12T16:54:00.120Z,4.47
2018-07-12T16:56:28.761Z,4.00
2018-07-12T16:58:57.358Z,4.83
2018-07-12T17:01:26.108Z,5.97
2018-07-12T17:03:54.798Z,3.90
2018-07-12T17:06:23.456Z,4.43
2018-07-12T17:08:52.062Z,6.23
2018-07-12T17:11:20.667Z,4.57
2018-07-12T17:13:49.946Z,3.60
2018-07-12T17:16:18.566Z,3.70
2018-07-12T17:18:47.521Z,16.15
2018-07-12T17:21:16.615Z,8.50
2018-07-12T17:23:45.255Z,5.43
2018-07-12T17:26:14.058Z,4.57
2018-07-12T17:28:42.696Z,6.30
2018-07-12T17:31:11.332Z,3.70
2018-07-12T17:33:40.122Z,4.93
2018-07-12T17:36:08.825Z,3.90
2018-07-12T17:38:37.440Z,5.77
2018-07-12T17:41:06.677Z,5.33
2018-07-12T17:43:35.538Z,5.83
2018-07-12T17:46:04.154Z,5.17
2018-07-12T17:48:33.150Z,4.63
2018-07-12T17:51:01.795Z,5.00
2018-07-12T17:53:30.664Z,4.33
2018-07-12T17:55:59.294Z,4.27
2018-07-12T17:58:27.954Z,5.47
2018-07-12T18:00:56.574Z,7.83
2018-07-12T18:03:25.390Z,5.00
2018-07-12T18:05:54.054Z,4.70
2018-07-12T18:08:22.691Z,5.70
2018-07-12T18:10:51.459Z,8.43
2018-07-12T18:13:20.146Z,4.27
2018-07-12T18:15:48.785Z,5.20
2018-07-12T18:18:17.584Z,6.40
2018-07-12T18:20:46.257Z,4.33
2018-07-12T18:23:14.866Z,5.37
2018-07-12T18:25:43.501Z,4.77
2018-07-12T18:28:18.739Z,5.33
2018-07-12T18:30:47.413Z,5.60
2018-07-12T18:33:16.171Z,4.93
2018-07-12T18:35:44.808Z,5.93
2018-07-12T18:38:13.458Z,6.10
2018-07-12T18:40:42.367Z,5.42
2018-07-12T18:43:11.268Z,5.72
2018-07-12T18:45:40.186Z,5.35
2018-07-12T18:48:09.142Z,5.50
2018-07-12T18:50:38.062Z,6.42
2018-07-12T18:53:06.967Z,5.90
2018-07-12T18:55:35.909Z,6.90
2018-07-12T18:58:04.830Z,4.75
2018-07-12T19:00:33.781Z,6.12
2018-07-12T19:03:02.746Z,4.85
2018-07-12T19:05:32.278Z,5.83
2018-07-12T19:08:01.202Z,5.53
2018-07-12T19:10:30.117Z,6.10
2018-07-12T19:12:59.214Z,4.67
2018-07-12T19:15:28.175Z,7.00
2018-07-12T19:17:57.370Z,5.20
2018-07-12T19:20:26.656Z,5.03
2018-07-12T19:22:55.570Z,4.42
2018-07-12T19:25:24.490Z,4.50
2018-07-12T19:27:53.388Z,5.83
2018-07-12T19:30:22.368Z,5.28
2018-07-12T19:32:51.488Z,5.10
2018-07-12T19:35:20.394Z,5.22
2018-07-12T19:37:49.350Z,3.90
2018-07-12T19:40:18.494Z,4.25
2018-07-12T19:42:47.428Z,6.45
2018-07-12T19:45:16.372Z,4.97
2018-07-12T19:47:45.672Z,5.78
2018-07-12T19:50:14.627Z,3.25
2018-07-12T19:52:43.828Z,3.00
2018-07-12T19:55:12.737Z,4.67
2018-07-12T19:57:41.832Z,4.50
2018-07-12T20:00:11.048Z,3.55
2018-07-12T20:02:39.955Z,3.55
2018-07-12T20:05:09.558Z,3.45
2018-07-12T20:07:38.798Z,4.25
2018-07-12T20:10:07.734Z,3.30
2018-07-12T20:12:36.654Z,3.87
2018-07-12T20:15:05.672Z,3.40
2018-07-12T20:17:35.051Z,3.22
2018-07-12T20:20:04.111Z,4.05
2018-07-12T20:22:33.103Z,3.60
2018-07-12T20:25:02.445Z,3.50
2018-07-12T20:27:31.362Z,4.60
2018-07-12T20:30:00.279Z,3.60
2018-07-12T20:32:29.227Z,4.30
2018-07-12T20:34:58.179Z,4.15
2018-07-12T20:37:27.191Z,3.67
2018-07-12T20:39:56.117Z,3.62
2018-07-12T20:42:25.057Z,4.45
2018-07-12T20:44:54.039Z,4.05
2018-07-12T20:47:22.961Z,4.42
2018-07-12T20:49:51.872Z,3.50
2018-07-12T20:52:21.527Z,3.40
2018-07-12T20:54:50.469Z,3.72
2018-07-12T20:57:20.024Z,4.72
2018-07-12T20:59:49.022Z,5.10
2018-07-12T21:02:17.971Z,3.55
2018-07-12T21:04:47.030Z,4.00
2018-07-12T21:07:16.186Z,4.20
2018-07-12T21:09:45.253Z,4.72
2018-07-12T21:12:14.239Z,3.90
2018-07-12T21:14:43.152Z,3.50
2018-07-12T21:17:12.076Z,4.03
2018-07-12T21:19:41.086Z,3.67
2018-07-12T21:22:10.336Z,5.10
2018-07-12T21:24:39.246Z,4.37
2018-07-12T21:27:08.144Z,4.00
2018-07-12T21:29:37.169Z,5.62
2018-07-12T21:32:06.044Z,3.80
2018-07-12T21:34:34.950Z,4.22
2018-07-12T21:37:03.857Z,4.15
2018-07-12T21:39:32.760Z,5.00
2018-07-12T21:42:01.669Z,3.92
2018-07-12T21:44:30.650Z,5.00
2018-07-12T21:46:59.754Z,4.15
2018-07-12T21:49:29.000Z,4.50
2018-07-12T21:51:57.938Z,5.17
2018-07-12T21:54:27.033Z,3.95
2018-07-12T21:56:55.929Z,6.12
2018-07-12T21:59:24.847Z,6.10
2018-07-12T22:01:54.277Z,6.12
2018-07-12T22:04:23.797Z,5.35
2018-07-12T22:07:10.334Z,4.62
2018-07-12T22:09:39.430Z,7.17
2018-07-12T22:12:08.581Z,5.87
2018-07-12T22:14:37.481Z,5.40
2018-07-12T22:17:06.573Z,5.80
2018-07-12T22:19:35.463Z,5.90
2018-07-12T22:22:04.366Z,5.30
2018-07-12T22:24:33.299Z,7.05
2018-07-12T22:27:02.535Z,5.75
2018-07-12T22:29:31.448Z,5.33
2018-07-12T22:32:00.362Z,6.30
2018-07-12T22:34:29.288Z,6.08
2018-07-12T22:36:58.175Z,6.90
2018-07-12T22:39:27.096Z,8.48
2018-07-12T22:41:56.005Z,5.92
2018-07-12T22:44:24.914Z,6.05
2018-07-12T22:46:53.798Z,5.87
2018-07-12T22:49:22.753Z,5.62
2018-07-12T22:51:51.679Z,5.20
2018-07-12T22:54:20.624Z,5.67
2018-07-12T22:56:49.565Z,5.58
2018-07-12T22:59:18.482Z,5.50
2018-07-12T23:01:47.393Z,5.15
2018-07-12T23:04:16.288Z,5.62
2018-07-12T23:06:45.286Z,4.95
2018-07-12T23:09:14.307Z,4.78
2018-07-12T23:11:43.209Z,4.85
2018-07-12T23:14:12.147Z,4.87
2018-07-12T23:16:41.037Z,4.60
2018-07-12T23:19:09.949Z,4.40
2018-07-12T23:21:38.854Z,4.65
2018-07-12T23:24:07.493Z,5.17
2018-07-12T23:26:36.397Z,5.30
2018-07-12T23:29:05.678Z,5.65
2018-07-12T23:31:34.599Z,4.67
2018-07-12T23:34:03.844Z,5.42
2018-07-12T23:36:32.731Z,5.25
2018-07-12T23:39:01.641Z,4.30
2018-07-12T23:41:30.599Z,6.05
2018-07-12T23:43:59.506Z,4.87
2018-07-12T23:46:28.423Z,5.58
2018-07-12T23:48:57.343Z,4.67
2018-07-12T23:51:26.264Z,5.05
2018-07-12T23:53:55.196Z,5.03
2018-07-12T23:56:24.130Z,5.90
2018-07-12T23:58:53.038Z,5.03
